Airfield :
LOGIN :

Register | Disclaimer

   EN    FR    IT 

 










Legend :    VFR   Marginal VFR   IFR   Intensive IFR   Very Intensive IFR
Visi :
Ceiling :
>= 8 km
>= 3000ft
5 to 8 km
1000 to 3000 ft
1500m to 5 km
500 to 1000 ft
800 to 1500m
200 to 500 ft
< 800m
< 200 ft
Symbols :   Thunderstorms  Fog  Heavy snow  Heavy precipitations  Wind > 20 kt
SIGMETs :     Misc.  Thunderstorms  Icing  Turbulence  Mountain Waves  Volcanic Ashes






- Airport Elevation : 1411 ft
- IATA code : ZHI


LSZG - Grenchen

CURRENT METAR :
  • 270550Z AUTO 00000KT 3000 -SN BR BKN/// M04/M07 Q1019

EXPIRED METARs :
  • 270520Z AUTO VRB01KT 9999 FEW055 BKN065 M04/M07 Q1020
  • 270450Z AUTO 29002KT 9999 FEW060 BKN070 M05/M07 Q1020
  • 270420Z AUTO 26002KT 7000 SCT065 BKN075 M06/M08 Q1020
  • 270350Z AUTO VRB01KT 4200 BR NSC M06/M09 Q1020
  • 270320Z AUTO 00000KT 0400 BR NCD M06/M09 Q1020 REFZDZ

TAF TAF LSZG
Valid from the 27 at 06:00 until the 27 at 15:00 UTC


270525Z 2706/2715 25003KT 9999 FEW050 BKN065
TEMPO 2706/2710 4500 -SN BKN014
PROB40
TEMPO 2710/2715 1000 SN VV005
ATIS : +41 32 396 96 33



MET'MAP, your aeronautical weather chart ! - Copyright ORBIFLY December 2007 - Disclaimer

ORBIFLY MET'MAP TEAM :

Programming & Development : Alexandra Zaïnal
Concept & original design : Baudouin d'Aumeries
Assistance for programming : Marc-Olivier Méhu
Technical & hardware support : Manuel Goepfert

Contact : metmap@orbifly.com




SOURCES & CREDITS :

   NOAA